Pleasant Hill, Missouri
Current Conditions -  °F | °C
As of 9:53 AM on Thursday 30 Oct 2014 (Local Time) from KLXT Reporting Station
Broken Clouds Broken Clouds  
Wind Chill: 53°   Ceiling: 10000
Heat Index: 53°   Visibility: 10mi
Dew Point: 42°   Wind: 6mph
Humidity: 66%   Direction: 200°SSW
Pressure: 30.03"   Gusts: NA
Location:  38.79°N, 94.27°W
Report Text: KLXT 301453Z AUTO 20005KT 10SM BKN100 BKN110 12/06 A3003 RMK AO2 SLP169 T01170056 50005
Loading
Personal Weather Stations






























Interactive Weather Map
Tropical Storm Tracking
New forecast layout! Learn more

10-Day Weather Forecast

Advertisements
Track Severe Weather on mobile